Time;durP1;ratioP1;P1;durP2;ratioP2;P2;SDS_P1;SDS_P2;PMS_P1;PMS_P2;Temp;Humidity;BMP_temperature;BMP_pressure;BME280_temperature;BME280_humidity;BME280_pressure;Samples;Min_cycle;Max_cycle;Signal;HPM_P1;HPM_P2
2023/07/24 00:01:54;;;;;;;9.52;6.65;;;;;;;;;;5091363;28;20193;-63
2023/07/24 00:04:21;;;;;;;9.60;7.68;;;;;;;;;;5066685;28;20225;-62
2023/07/24 00:06:49;;;;;;;11.15;7.68;;;;;;;;;;5087775;28;20212;-63
2023/07/24 00:09:16;;;;;;;10.18;7.53;;;;;;;;;;5090564;28;20206;-62
2023/07/24 00:11:43;;;;;;;12.15;7.70;;;;;;;;;;5068467;28;20209;-63
2023/07/24 00:14:10;;;;;;;12.70;7.55;;;;;;;;;;5092331;28;20228;-63
2023/07/24 00:16:38;;;;;;;11.02;7.82;;;;;;;;;;5091630;28;20228;-61
2023/07/24 00:19:05;;;;;;;10.57;7.72;;;;;;;;;;5089152;28;20220;-61
2023/07/24 00:21:33;;;;;;;10.93;7.57;;;;;;;;;;5089686;28;20200;-63
2023/07/24 00:24:00;;;;;;;11.57;8.23;;;;;;;;;;5091989;28;20217;-64
2023/07/24 00:26:27;;;;;;;9.73;7.10;;;;;;;;;;5088154;28;20204;-62
2023/07/24 00:28:55;;;;;;;9.00;7.05;;;;;;;;;;5082000;28;20211;-62
2023/07/24 00:31:23;;;;;;;10.73;7.63;;;;;;;;;;5086916;28;20575;-64
2023/07/24 00:33:50;;;;;;;8.85;6.85;;;;;;;;;;5075719;28;20220;-63
2023/07/24 00:36:17;;;;;;;7.93;6.68;;;;;;;;;;5082498;28;20225;-63
2023/07/24 00:38:45;;;;;;;8.52;7.10;;;;;;;;;;5083398;28;20201;-61
2023/07/24 00:41:12;;;;;;;7.85;6.10;;;;;;;;;;5079045;28;20949;-62
2023/07/24 00:43:39;;;;;;;9.88;6.60;;;;;;;;;;5080396;28;20710;-63
2023/07/24 00:46:06;;;;;;;13.65;8.80;;;;;;;;;;5074620;28;20228;-61
2023/07/24 00:48:34;;;;;;;11.52;7.63;;;;;;;;;;5081124;28;20213;-62
2023/07/24 00:51:02;;;;;;;8.95;7.22;;;;;;;;;;5082754;28;20212;-63
2023/07/24 00:53:29;;;;;;;9.38;7.28;;;;;;;;;;5081867;28;20221;-61
2023/07/24 00:55:57;;;;;;;12.65;8.15;;;;;;;;;;5084262;28;20220;-61
2023/07/24 00:58:24;;;;;;;12.05;8.00;;;;;;;;;;5086135;28;20673;-61
2023/07/24 01:00:52;;;;;;;30.70;17.92;;;;;;;;;;5064200;28;20251;-61
2023/07/24 01:03:19;;;;;;;16.95;11.70;;;;;;;;;;5076637;28;20251;-61
2023/07/24 01:05:47;;;;;;;16.00;9.38;;;;;;;;;;5077278;28;20201;-61
2023/07/24 01:08:14;;;;;;;11.02;8.32;;;;;;;;;;5077451;28;20269;-63
2023/07/24 01:10:41;;;;;;;12.57;8.00;;;;;;;;;;5078366;28;20231;-63
2023/07/24 01:13:14;;;;;;;9.45;7.32;;;;;;;;;;5077580;28;20271;-61
2023/07/24 01:15:52;;;;;;;9.13;7.20;;;;;;;;;;5087395;28;20197;-62
2023/07/24 01:18:23;;;;;;;9.20;6.97;;;;;;;;;;5079917;28;20200;-63
2023/07/24 01:20:55;;;;;;;10.57;8.43;;;;;;;;;;5086035;28;20204;-62
2023/07/24 01:23:46;;;;;;;9.07;7.38;;;;;;;;;;5085857;28;20220;-62
2023/07/24 01:26:13;;;;;;;9.82;7.60;;;;;;;;;;5089261;28;20213;-62
2023/07/24 01:28:40;;;;;;;11.10;7.53;;;;;;;;;;5084855;28;20262;-62
2023/07/24 01:31:08;;;;;;;8.68;6.95;;;;;;;;;;5082301;28;20197;-63
2023/07/24 01:33:36;;;;;;;10.20;7.32;;;;;;;;;;5076626;28;20231;-62
2023/07/24 01:36:04;;;;;;;10.48;7.32;;;;;;;;;;5067529;28;20231;-63
2023/07/24 01:38:32;;;;;;;10.00;7.88;;;;;;;;;;5082652;28;20197;-63
2023/07/24 01:41:00;;;;;;;9.48;7.15;;;;;;;;;;5083710;28;20200;-63
2023/07/24 01:43:28;;;;;;;9.85;7.00;;;;;;;;;;5082646;28;20312;-62
2023/07/24 01:45:56;;;;;;;9.63;7.32;;;;;;;;;;5080238;28;20664;-62
2023/07/24 01:48:23;;;;;;;11.95;7.70;;;;;;;;;;5084971;28;20316;-62
2023/07/24 01:50:51;;;;;;;10.13;7.65;;;;;;;;;;5086018;28;20300;-62
2023/07/24 01:53:18;;;;;;;9.45;7.50;;;;;;;;;;5089477;28;20626;-62
2023/07/24 01:55:45;;;;;;;10.70;7.88;;;;;;;;;;5071165;28;20196;-63
2023/07/24 01:58:13;;;;;;;9.63;7.32;;;;;;;;;;5093374;28;20545;-63
2023/07/24 02:00:40;;;;;;;12.30;7.93;;;;;;;;;;5087252;28;20205;-61
2023/07/24 02:03:07;;;;;;;11.23;8.07;;;;;;;;;;5075363;28;20286;-63
2023/07/24 02:05:35;;;;;;;10.02;7.75;;;;;;;;;;5077427;28;20572;-63
2023/07/24 02:08:02;;;;;;;10.75;8.27;;;;;;;;;;5080676;28;20197;-61
2023/07/24 02:10:30;;;;;;;11.75;8.10;;;;;;;;;;5085905;28;20724;-63
2023/07/24 02:12:57;;;;;;;9.93;7.93;;;;;;;;;;5085593;28;20228;-62
2023/07/24 02:15:25;;;;;;;10.65;8.25;;;;;;;;;;5089418;28;20209;-63
2023/07/24 02:17:52;;;;;;;10.45;8.00;;;;;;;;;;5076922;28;20571;-63
2023/07/24 02:20:19;;;;;;;12.32;7.97;;;;;;;;;;5073469;28;20369;-63
2023/07/24 02:22:47;;;;;;;11.00;8.18;;;;;;;;;;5077182;28;20220;-61
2023/07/24 02:25:14;;;;;;;11.07;7.82;;;;;;;;;;5082391;28;20197;-64
2023/07/24 02:27:41;;;;;;;12.23;8.73;;;;;;;;;;5086091;28;20262;-63
2023/07/24 02:30:09;;;;;;;11.05;7.80;;;;;;;;;;5088046;28;20257;-64
2023/07/24 02:32:36;;;;;;;10.43;8.32;;;;;;;;;;5079455;28;20646;-64
2023/07/24 02:35:04;;;;;;;10.52;8.23;;;;;;;;;;5079503;28;20201;-61
2023/07/24 02:37:31;;;;;;;10.82;8.27;;;;;;;;;;5084006;28;20684;-63
2023/07/24 02:39:58;;;;;;;13.50;8.73;;;;;;;;;;5085226;28;20215;-62
2023/07/24 02:42:25;;;;;;;9.98;8.50;;;;;;;;;;5095749;28;20769;-62
2023/07/24 02:44:53;;;;;;;10.07;7.40;;;;;;;;;;5084014;28;20196;-64
2023/07/24 02:47:20;;;;;;;10.75;8.27;;;;;;;;;;5085364;28;20208;-62
2023/07/24 02:49:47;;;;;;;11.50;8.00;;;;;;;;;;5081457;28;20798;-62
2023/07/24 02:52:15;;;;;;;9.52;7.30;;;;;;;;;;5090226;28;20224;-63
2023/07/24 02:54:42;;;;;;;11.50;7.68;;;;;;;;;;5088199;28;20200;-62
2023/07/24 02:57:09;;;;;;;11.18;8.13;;;;;;;;;;5078921;28;20693;-62
2023/07/24 02:59:37;;;;;;;9.35;7.82;;;;;;;;;;5070038;28;20255;-62
2023/07/24 03:02:04;;;;;;;11.90;7.88;;;;;;;;;;5077682;28;20636;-62
2023/07/24 03:04:32;;;;;;;12.07;8.18;;;;;;;;;;5077290;28;20636;-62
2023/07/24 03:06:59;;;;;;;13.13;9.07;;;;;;;;;;5085897;28;20208;-63
2023/07/24 03:09:26;;;;;;;14.45;10.75;;;;;;;;;;5082073;28;20216;-62
2023/07/24 03:11:53;;;;;;;11.93;9.55;;;;;;;;;;5082649;28;20670;-62
2023/07/24 03:14:21;;;;;;;10.65;8.18;;;;;;;;;;5066216;28;20204;-62
2023/07/24 03:16:48;;;;;;;11.75;8.70;;;;;;;;;;5074381;28;20233;-62
2023/07/24 03:19:17;;;;;;;10.27;7.65;;;;;;;;;;5084593;28;20633;-62
2023/07/24 03:21:44;;;;;;;12.60;8.40;;;;;;;;;;5090619;28;20224;-63
2023/07/24 03:24:12;;;;;;;12.63;8.02;;;;;;;;;;5087272;28;20225;-62
2023/07/24 03:26:39;;;;;;;11.35;8.82;;;;;;;;;;5068768;28;20236;-62
2023/07/24 03:29:06;;;;;;;11.68;7.93;;;;;;;;;;5082428;28;20204;-64
2023/07/24 03:31:34;;;;;;;13.27;9.10;;;;;;;;;;5079468;28;20213;-64
2023/07/24 03:34:01;;;;;;;11.73;8.50;;;;;;;;;;5074791;28;20312;-63
2023/07/24 03:36:28;;;;;;;9.77;7.82;;;;;;;;;;5080168;28;20197;-62
2023/07/24 03:38:56;;;;;;;11.20;8.32;;;;;;;;;;5075785;28;20199;-62
2023/07/24 03:41:23;;;;;;;9.48;7.40;;;;;;;;;;5076040;28;20208;-63
2023/07/24 03:43:51;;;;;;;11.70;8.40;;;;;;;;;;5080719;28;20217;-63
2023/07/24 03:46:18;;;;;;;12.57;8.38;;;;;;;;;;5089269;28;20337;-62
2023/07/24 03:48:46;;;;;;;11.02;7.90;;;;;;;;;;5081263;28;20215;-62
2023/07/24 03:51:13;;;;;;;11.75;8.50;;;;;;;;;;5079275;28;20223;-63
2023/07/24 03:53:40;;;;;;;12.18;7.93;;;;;;;;;;5083406;28;20217;-63
2023/07/24 03:56:08;;;;;;;11.05;7.90;;;;;;;;;;5076385;28;20920;-62
2023/07/24 03:58:35;;;;;;;11.32;7.80;;;;;;;;;;5084193;28;20218;-63
2023/07/24 04:01:02;;;;;;;10.55;8.13;;;;;;;;;;5070718;28;20198;-62
2023/07/24 04:03:30;;;;;;;11.73;8.55;;;;;;;;;;5067800;28;20216;-62
2023/07/24 04:05:57;;;;;;;12.75;8.30;;;;;;;;;;5092985;28;20602;-61
2023/07/24 04:08:24;;;;;;;11.98;8.05;;;;;;;;;;5081860;28;20224;-61
2023/07/24 04:10:52;;;;;;;10.65;8.07;;;;;;;;;;5075655;28;20227;-61
2023/07/24 04:13:19;;;;;;;12.32;8.43;;;;;;;;;;5080099;28;20223;-62
2023/07/24 04:15:47;;;;;;;10.32;7.97;;;;;;;;;;5075924;28;20578;-62
2023/07/24 04:18:15;;;;;;;11.70;8.30;;;;;;;;;;5073797;28;21100;-62
2023/07/24 04:20:42;;;;;;;10.07;7.55;;;;;;;;;;5063064;28;20255;-62
2023/07/24 04:23:10;;;;;;;10.30;7.70;;;;;;;;;;5072326;28;20221;-63
2023/07/24 04:25:38;;;;;;;13.20;7.55;;;;;;;;;;5075381;28;20694;-61
2023/07/24 04:28:05;;;;;;;10.85;7.43;;;;;;;;;;5043516;28;20240;-64
2023/07/24 04:30:33;;;;;;;10.18;7.32;;;;;;;;;;5070485;28;20223;-63
2023/07/24 04:33:00;;;;;;;12.55;8.23;;;;;;;;;;5071413;28;20233;-62
2023/07/24 04:35:28;;;;;;;11.60;7.90;;;;;;;;;;5072231;28;20209;-62
2023/07/24 04:37:57;;;;;;;12.43;7.85;;;;;;;;;;5065897;28;20235;-63
2023/07/24 04:40:24;;;;;;;11.57;7.68;;;;;;;;;;5077341;28;20201;-64
2023/07/24 04:42:52;;;;;;;11.48;7.47;;;;;;;;;;5070390;28;20568;-63
2023/07/24 04:45:20;;;;;;;12.45;8.50;;;;;;;;;;5079106;28;20271;-65
2023/07/24 04:47:50;;;;;;;9.55;7.93;;;;;;;;;;5071083;28;20200;-64
2023/07/24 04:50:17;;;;;;;11.10;8.00;;;;;;;;;;5073303;28;20238;-62
2023/07/24 04:52:45;;;;;;;10.65;8.35;;;;;;;;;;5067245;28;20278;-63
2023/07/24 04:55:12;;;;;;;9.77;7.80;;;;;;;;;;5092524;28;20205;-63
2023/07/24 04:57:39;;;;;;;10.02;7.65;;;;;;;;;;5075735;28;20766;-62
2023/07/24 05:00:07;;;;;;;11.02;8.27;;;;;;;;;;5079339;28;20214;-62
2023/07/24 05:02:35;;;;;;;11.40;8.25;;;;;;;;;;5076174;28;20229;-64
2023/07/24 05:05:04;;;;;;;13.50;8.80;;;;;;;;;;5078526;28;20285;-61
2023/07/24 05:07:32;;;;;;;10.50;8.18;;;;;;;;;;5082751;28;20322;-62
2023/07/24 05:10:00;;;;;;;11.10;8.13;;;;;;;;;;5078791;28;20309;-62
2023/07/24 05:12:28;;;;;;;11.00;8.07;;;;;;;;;;5062205;28;20233;-62
2023/07/24 05:14:56;;;;;;;11.15;8.30;;;;;;;;;;5076336;28;20208;-63
2023/07/24 05:17:23;;;;;;;11.63;7.72;;;;;;;;;;5073785;28;20213;-63
2023/07/24 05:19:51;;;;;;;10.43;7.85;;;;;;;;;;5080240;28;20232;-63
2023/07/24 05:22:18;;;;;;;9.43;7.68;;;;;;;;;;5077389;28;20237;-64
2023/07/24 05:24:45;;;;;;;11.50;8.35;;;;;;;;;;5077676;28;20193;-62
2023/07/24 05:27:15;;;;;;;11.05;8.57;;;;;;;;;;5065125;28;20213;-62
2023/07/24 05:29:43;;;;;;;10.00;7.43;;;;;;;;;;5078304;28;20213;-62
2023/07/24 05:32:10;;;;;;;8.95;7.28;;;;;;;;;;5076223;28;22844;-61
2023/07/24 05:34:38;;;;;;;10.48;8.18;;;;;;;;;;5078631;28;20216;-62
2023/07/24 05:37:05;;;;;;;10.48;8.00;;;;;;;;;;5075073;28;20227;-61
2023/07/24 05:39:33;;;;;;;10.82;7.82;;;;;;;;;;5078123;28;20205;-62
2023/07/24 05:42:00;;;;;;;9.38;7.38;;;;;;;;;;5089274;28;20224;-61
2023/07/24 05:44:27;;;;;;;12.02;8.25;;;;;;;;;;5057262;28;20661;-61
2023/07/24 05:46:55;;;;;;;10.18;8.27;;;;;;;;;;5077889;28;20501;-60
2023/07/24 05:49:22;;;;;;;11.15;7.70;;;;;;;;;;5083340;28;20221;-62
2023/07/24 05:51:50;;;;;;;11.18;7.55;;;;;;;;;;5074456;28;20854;-60
2023/07/24 05:54:17;;;;;;;10.38;8.02;;;;;;;;;;5078525;28;20217;-63
2023/07/24 05:56:44;;;;;;;9.52;7.00;;;;;;;;;;5063596;28;20199;-64
2023/07/24 05:59:11;;;;;;;10.07;7.53;;;;;;;;;;5078853;28;20237;-60
2023/07/24 06:01:39;;;;;;;10.82;8.13;;;;;;;;;;5072466;28;20212;-61
2023/07/24 06:04:07;;;;;;;11.18;7.97;;;;;;;;;;5080026;28;20228;-61
2023/07/24 06:06:36;;;;;;;11.07;7.55;;;;;;;;;;5058531;28;20201;-64
2023/07/24 06:09:03;;;;;;;10.73;7.43;;;;;;;;;;5075851;28;20224;-60
2023/07/24 06:11:30;;;;;;;11.13;7.50;;;;;;;;;;5075659;28;20197;-63
2023/07/24 06:13:58;;;;;;;11.98;7.68;;;;;;;;;;5063259;28;20232;-62
2023/07/24 06:16:25;;;;;;;10.43;7.72;;;;;;;;;;5056749;28;20216;-62
2023/07/24 06:18:52;;;;;;;10.35;7.65;;;;;;;;;;5079442;28;20653;-62
2023/07/24 06:21:20;;;;;;;10.10;8.10;;;;;;;;;;5072144;28;20664;-62
2023/07/24 06:23:47;;;;;;;10.55;7.18;;;;;;;;;;5055181;28;20525;-62
2023/07/24 06:26:14;;;;;;;11.15;7.97;;;;;;;;;;5073283;28;20197;-61
2023/07/24 06:28:41;;;;;;;8.40;7.22;;;;;;;;;;5081217;28;20713;-63
2023/07/24 06:31:09;;;;;;;9.20;6.95;;;;;;;;;;5079300;28;20636;-62
2023/07/24 06:33:36;;;;;;;9.30;7.00;;;;;;;;;;5078021;28;20309;-60
2023/07/24 06:36:05;;;;;;;9.32;7.72;;;;;;;;;;5046983;28;20213;-62
2023/07/24 06:38:32;;;;;;;10.00;7.75;;;;;;;;;;5068577;28;20221;-64
2023/07/24 06:40:59;;;;;;;9.88;7.22;;;;;;;;;;5082588;28;20205;-62
2023/07/24 06:43:27;;;;;;;11.57;7.57;;;;;;;;;;5076127;28;20708;-63
2023/07/24 06:45:55;;;;;;;12.05;7.43;;;;;;;;;;5079260;28;20201;-61
2023/07/24 06:48:22;;;;;;;11.35;7.43;;;;;;;;;;5066798;28;20454;-59
2023/07/24 06:50:50;;;;;;;9.95;6.57;;;;;;;;;;5078938;28;20837;-62
2023/07/24 06:53:17;;;;;;;9.95;8.45;;;;;;;;;;5080812;28;20220;-63
2023/07/24 06:55:44;;;;;;;8.25;7.00;;;;;;;;;;5088497;28;20205;-62
2023/07/24 06:58:12;;;;;;;10.00;7.07;;;;;;;;;;5085667;28;20739;-62
2023/07/24 07:00:39;;;;;;;10.00;7.03;;;;;;;;;;5081577;28;20193;-63
2023/07/24 07:03:06;;;;;;;10.30;7.18;;;;;;;;;;5076781;28;20227;-63
2023/07/24 07:05:34;;;;;;;9.95;7.03;;;;;;;;;;5078611;28;20201;-63
2023/07/24 07:08:01;;;;;;;8.80;6.70;;;;;;;;;;5070883;28;20239;-62
2023/07/24 07:10:29;;;;;;;8.50;6.88;;;;;;;;;;5073243;28;20204;-62
2023/07/24 07:12:56;;;;;;;7.50;6.43;;;;;;;;;;5080208;28;20228;-64
2023/07/24 07:15:23;;;;;;;8.82;6.63;;;;;;;;;;5087545;28;20209;-60
2023/07/24 07:17:51;;;;;;;8.63;6.57;;;;;;;;;;5075323;28;20231;-63
2023/07/24 07:20:19;;;;;;;9.13;6.45;;;;;;;;;;5083184;28;20687;-62
2023/07/24 07:22:46;;;;;;;9.02;6.10;;;;;;;;;;5075164;28;20228;-63
2023/07/24 07:25:14;;;;;;;7.35;5.68;;;;;;;;;;5086179;28;20212;-61
2023/07/24 07:27:41;;;;;;;6.68;5.53;;;;;;;;;;5081751;28;20220;-61
2023/07/24 07:30:09;;;;;;;7.93;6.22;;;;;;;;;;5078843;28;20248;-61
2023/07/24 07:32:37;;;;;;;7.97;5.93;;;;;;;;;;5071751;28;20846;-61
2023/07/24 07:35:06;;;;;;;7.30;6.13;;;;;;;;;;5082594;28;20612;-61
2023/07/24 07:37:34;;;;;;;7.18;5.03;;;;;;;;;;5065010;28;20623;-62
2023/07/24 07:40:02;;;;;;;8.63;5.72;;;;;;;;;;5059528;28;20727;-63
2023/07/24 07:42:29;;;;;;;6.30;5.30;;;;;;;;;;5078329;28;20236;-62
2023/07/24 07:44:56;;;;;;;6.38;5.15;;;;;;;;;;5076267;28;20198;-63
2023/07/24 07:47:24;;;;;;;6.93;4.80;;;;;;;;;;5079704;28;20200;-62
2023/07/24 07:49:51;;;;;;;5.80;4.63;;;;;;;;;;5081354;28;20220;-62
2023/07/24 07:52:20;;;;;;;5.70;4.80;;;;;;;;;;5081278;28;20250;-62
2023/07/24 07:54:48;;;;;;;8.38;5.38;;;;;;;;;;5085891;28;20691;-63
2023/07/24 07:57:15;;;;;;;5.30;4.80;;;;;;;;;;5065704;28;20691;-60
2023/07/24 07:59:42;;;;;;;5.45;4.88;;;;;;;;;;5067783;28;20228;-63
2023/07/24 08:02:10;;;;;;;6.10;4.72;;;;;;;;;;5079209;28;20207;-65
2023/07/24 08:04:37;;;;;;;5.30;4.80;;;;;;;;;;5082337;28;20697;-63
2023/07/24 08:07:04;;;;;;;5.57;4.78;;;;;;;;;;5062421;28;20250;-64
2023/07/24 08:09:33;;;;;;;6.75;4.68;;;;;;;;;;5078197;28;20197;-62
2023/07/24 08:12:00;;;;;;;4.97;4.47;;;;;;;;;;5064065;28;20205;-65
2023/07/24 08:14:28;;;;;;;7.93;4.50;;;;;;;;;;5064658;28;20219;-65
2023/07/24 08:16:55;;;;;;;7.10;3.88;;;;;;;;;;5081038;28;20664;-63
2023/07/24 08:19:23;;;;;;;5.30;4.70;;;;;;;;;;5081155;28;20233;-62
2023/07/24 08:21:50;;;;;;;6.97;4.60;;;;;;;;;;5084712;28;20614;-66
2023/07/24 08:24:18;;;;;;;5.85;4.40;;;;;;;;;;5067700;28;20228;-63
2023/07/24 08:26:45;;;;;;;5.30;4.05;;;;;;;;;;5063828;28;20193;-62
2023/07/24 08:29:13;;;;;;;5.53;4.65;;;;;;;;;;5083736;28;20213;-62
2023/07/24 08:31:40;;;;;;;5.97;4.30;;;;;;;;;;5075347;28;20214;-63
2023/07/24 08:34:07;;;;;;;6.05;4.68;;;;;;;;;;5075546;28;20241;-64
2023/07/24 08:36:37;;;;;;;4.80;4.30;;;;;;;;;;5079167;28;20197;-63
2023/07/24 08:39:05;;;;;;;6.00;4.43;;;;;;;;;;5084363;28;20221;-63
2023/07/24 08:41:34;;;;;;;7.57;4.43;;;;;;;;;;5086870;28;20200;-62
2023/07/24 08:44:01;;;;;;;5.75;4.60;;;;;;;;;;5079150;28;20221;-64
2023/07/24 08:46:29;;;;;;;6.38;4.90;;;;;;;;;;5084426;28;20197;-64
2023/07/24 08:48:58;;;;;;;6.22;4.93;;;;;;;;;;5081784;28;20201;-63
2023/07/24 08:51:25;;;;;;;7.20;5.28;;;;;;;;;;5090433;28;20257;-64
2023/07/24 08:53:53;;;;;;;6.25;5.28;;;;;;;;;;5082286;28;20640;-63
2023/07/24 08:56:22;;;;;;;5.43;4.75;;;;;;;;;;5061225;28;20318;-64
2023/07/24 08:58:49;;;;;;;5.97;4.90;;;;;;;;;;5078026;28;20644;-65
2023/07/24 09:01:17;;;;;;;5.90;5.10;;;;;;;;;;5069329;28;20209;-62
2023/07/24 09:03:44;;;;;;;8.73;5.15;;;;;;;;;;5081488;28;20417;-63
2023/07/24 09:06:12;;;;;;;5.63;5.05;;;;;;;;;;5069595;28;20211;-63
2023/07/24 09:08:40;;;;;;;6.68;5.25;;;;;;;;;;5081457;28;20202;-64
2023/07/24 09:11:09;;;;;;;6.82;5.30;;;;;;;;;;5082273;28;20206;-62
2023/07/24 09:13:37;;;;;;;8.18;5.22;;;;;;;;;;5076992;28;20720;-65
2023/07/24 09:16:05;;;;;;;8.35;5.70;;;;;;;;;;5061730;28;20596;-64
2023/07/24 09:18:45;;;;;;;8.10;5.90;;;;;;;;;;5079243;28;20374;-64
2023/07/24 09:21:12;;;;;;;6.18;5.22;;;;;;;;;;5074127;28;20866;-63
2023/07/24 09:23:40;;;;;;;5.90;5.30;;;;;;;;;;5059139;28;20228;-64
2023/07/24 09:26:08;;;;;;;7.00;5.82;;;;;;;;;;5075459;28;20272;-64
2023/07/24 09:28:36;;;;;;;6.50;5.22;;;;;;;;;;5078001;28;20569;-64
2023/07/24 09:31:04;;;;;;;10.13;6.47;;;;;;;;;;5081196;28;20207;-62
2023/07/24 09:33:36;;;;;;;7.57;5.13;;;;;;;;;;5079025;28;20292;-63
2023/07/24 09:36:04;;;;;;;7.88;5.03;;;;;;;;;;5074685;28;20203;-62
2023/07/24 09:38:32;;;;;;;5.82;4.85;;;;;;;;;;5075889;28;20971;-61
2023/07/24 09:41:03;;;;;;;6.90;5.30;;;;;;;;;;5081476;28;20343;-63
2023/07/24 09:43:32;;;;;;;6.65;5.70;;;;;;;;;;5079710;28;20655;-64
2023/07/24 09:46:04;;;;;;;8.43;5.38;;;;;;;;;;5060889;28;20250;-60
2023/07/24 09:48:33;;;;;;;6.88;5.35;;;;;;;;;;5082178;28;20292;-63
2023/07/24 09:51:03;;;;;;;6.93;5.38;;;;;;;;;;5064721;28;20212;-64
2023/07/24 09:53:30;;;;;;;6.47;5.43;;;;;;;;;;5083405;28;20225;-61
2023/07/24 09:55:59;;;;;;;7.00;5.30;;;;;;;;;;5083282;28;20289;-63
2023/07/24 09:58:26;;;;;;;6.95;5.43;;;;;;;;;;5064286;28;20220;-61
2023/07/24 10:00:54;;;;;;;8.43;5.80;;;;;;;;;;5076792;28;20541;-61
2023/07/24 10:03:22;;;;;;;8.00;6.03;;;;;;;;;;5061289;28;20653;-62
2023/07/24 10:05:52;;;;;;;7.03;5.80;;;;;;;;;;5054112;28;20203;-62
2023/07/24 10:08:20;;;;;;;8.10;5.53;;;;;;;;;;5060283;28;20741;-61
2023/07/24 10:10:50;;;;;;;6.72;5.80;;;;;;;;;;5077162;28;20205;-63
2023/07/24 10:13:22;;;;;;;8.50;5.97;;;;;;;;;;5057061;28;20218;-63
2023/07/24 10:15:49;;;;;;;8.40;5.72;;;;;;;;;;5073553;28;20208;-63
2023/07/24 10:18:18;;;;;;;7.10;5.75;;;;;;;;;;5080304;28;20234;-63
2023/07/24 10:20:47;;;;;;;6.32;5.68;;;;;;;;;;5076010;28;20232;-63
2023/07/24 10:23:18;;;;;;;6.93;5.70;;;;;;;;;;5078392;28;20294;-62
2023/07/24 10:25:46;;;;;;;9.20;6.00;;;;;;;;;;5080049;28;20197;-64
2023/07/24 10:28:18;;;;;;;6.70;5.70;;;;;;;;;;5076894;28;20645;-64
2023/07/24 10:30:55;;;;;;;9.93;6.10;;;;;;;;;;5075490;28;20408;-63
2023/07/24 10:33:23;;;;;;;7.15;5.43;;;;;;;;;;5079121;28;20220;-64
2023/07/24 10:35:53;;;;;;;7.32;5.40;;;;;;;;;;5059579;28;20206;-64
2023/07/24 10:38:32;;;;;;;17.70;7.45;;;;;;;;;;5072211;28;20205;-62
2023/07/24 10:41:03;;;;;;;10.43;5.65;;;;;;;;;;5080295;28;20242;-62
2023/07/24 10:43:40;;;;;;;7.10;5.75;;;;;;;;;;5069553;28;20413;-64
2023/07/24 10:46:07;;;;;;;13.38;5.78;;;;;;;;;;5082406;28;20595;-65
2023/07/24 10:48:35;;;;;;;6.18;4.95;;;;;;;;;;5074724;28;20356;-65
2023/07/24 10:51:08;;;;;;;7.00;5.32;;;;;;;;;;5073829;28;20863;-63
2023/07/24 10:53:39;;;;;;;10.15;5.50;;;;;;;;;;5057951;28;20217;-63
2023/07/24 10:56:07;;;;;;;7.15;5.70;;;;;;;;;;5072471;28;20204;-61
2023/07/24 10:58:35;;;;;;;9.27;5.85;;;;;;;;;;5075785;28;20229;-64
2023/07/24 11:01:06;;;;;;;7.20;5.43;;;;;;;;;;5073816;28;20223;-63
2023/07/24 11:03:36;;;;;;;7.70;5.18;;;;;;;;;;5074263;28;20220;-64
2023/07/24 11:06:03;;;;;;;8.95;5.45;;;;;;;;;;5084801;28;20598;-63
2023/07/24 11:08:32;;;;;;;6.75;5.40;;;;;;;;;;5081112;28;20205;-64
2023/07/24 11:11:01;;;;;;;8.45;5.50;;;;;;;;;;5074490;28;20197;-62
2023/07/24 11:13:29;;;;;;;7.53;5.22;;;;;;;;;;5070925;28;20229;-62
2023/07/24 11:15:56;;;;;;;7.70;5.43;;;;;;;;;;5079621;28;20207;-64
2023/07/24 11:18:26;;;;;;;6.55;5.68;;;;;;;;;;5071247;28;20582;-63
2023/07/24 11:21:05;;;;;;;5.57;4.93;;;;;;;;;;5077266;28;20694;-62
2023/07/24 11:23:32;;;;;;;8.40;5.50;;;;;;;;;;5072456;28;20229;-61
2023/07/24 11:26:00;;;;;;;7.07;5.32;;;;;;;;;;5071200;28;20266;-63
2023/07/24 11:28:28;;;;;;;7.00;5.72;;;;;;;;;;5072006;28;20669;-63
2023/07/24 11:30:55;;;;;;;6.15;5.20;;;;;;;;;;5079499;28;20227;-61
2023/07/24 11:33:23;;;;;;;6.55;5.47;;;;;;;;;;5069900;28;20485;-62
2023/07/24 11:35:50;;;;;;;9.07;5.60;;;;;;;;;;5080083;28;20213;-62
2023/07/24 11:38:17;;;;;;;7.18;4.72;;;;;;;;;;5072257;28;20209;-61
2023/07/24 11:40:46;;;;;;;6.03;5.43;;;;;;;;;;5068384;28;20204;-62
2023/07/24 11:43:24;;;;;;;8.50;5.30;;;;;;;;;;5083837;28;20302;-61
2023/07/24 11:45:52;;;;;;;8.15;7.30;;;;;;;;;;5078861;28;20204;-64
2023/07/24 11:48:20;;;;;;;8.23;7.28;;;;;;;;;;5070073;28;20263;-63
2023/07/24 11:50:48;;;;;;;6.85;5.40;;;;;;;;;;5080002;28;20236;-63
2023/07/24 11:53:20;;;;;;;9.27;5.30;;;;;;;;;;5083909;28;20217;-64
2023/07/24 11:55:48;;;;;;;10.38;4.65;;;;;;;;;;5091747;28;20200;-62
2023/07/24 11:58:16;;;;;;;8.32;5.25;;;;;;;;;;5073718;28;20201;-64
2023/07/24 12:00:43;;;;;;;9.85;4.90;;;;;;;;;;5085228;28;20302;-63
2023/07/24 12:03:11;;;;;;;6.55;5.00;;;;;;;;;;5080594;28;20224;-61
2023/07/24 12:05:39;;;;;;;7.90;4.60;;;;;;;;;;5085672;28;20197;-62
2023/07/24 12:08:07;;;;;;;6.60;5.15;;;;;;;;;;5087493;28;20207;-63
2023/07/24 12:10:36;;;;;;;11.48;5.38;;;;;;;;;;5094290;28;20216;-63
2023/07/24 12:13:07;;;;;;;6.30;4.65;;;;;;;;;;5088743;28;20227;-64
2023/07/24 12:15:35;;;;;;;5.72;4.35;;;;;;;;;;5083843;28;20205;-63
2023/07/24 12:18:03;;;;;;;5.65;4.30;;;;;;;;;;5091718;28;20247;-62
2023/07/24 12:20:31;;;;;;;4.88;4.25;;;;;;;;;;5071936;28;20223;-61
2023/07/24 12:22:59;;;;;;;4.60;4.20;;;;;;;;;;5082298;28;20229;-62
2023/07/24 12:25:26;;;;;;;6.43;4.68;;;;;;;;;;5083583;28;20202;-62
2023/07/24 12:27:53;;;;;;;7.72;4.40;;;;;;;;;;5082106;28;20204;-63
2023/07/24 12:30:21;;;;;;;6.53;3.75;;;;;;;;;;5092502;28;20261;-62
2023/07/24 12:32:49;;;;;;;5.85;3.97;;;;;;;;;;5086598;28;20232;-63
2023/07/24 12:35:17;;;;;;;4.45;3.20;;;;;;;;;;5071575;28;20204;-62
2023/07/24 12:37:45;;;;;;;3.47;3.15;;;;;;;;;;5061451;28;20208;-61
2023/07/24 12:40:13;;;;;;;4.20;3.80;;;;;;;;;;5069226;28;20591;-61
2023/07/24 12:42:40;;;;;;;4.75;3.30;;;;;;;;;;5082618;28;20228;-63
2023/07/24 12:45:08;;;;;;;3.83;3.20;;;;;;;;;;5079304;28;20204;-62
2023/07/24 12:47:35;;;;;;;4.70;3.45;;;;;;;;;;5090846;28;20193;-62
2023/07/24 12:50:03;;;;;;;4.18;3.13;;;;;;;;;;5088053;28;20244;-63
2023/07/24 12:52:35;;;;;;;3.97;3.60;;;;;;;;;;5082138;28;20251;-63
2023/07/24 12:55:04;;;;;;;4.85;3.80;;;;;;;;;;5065994;28;20205;-61
2023/07/24 12:57:31;;;;;;;4.10;3.53;;;;;;;;;;5085602;28;20200;-64
2023/07/24 12:59:59;;;;;;;4.07;3.38;;;;;;;;;;5073179;28;20224;-61
2023/07/24 13:02:26;;;;;;;4.32;3.38;;;;;;;;;;5065405;28;20303;-63
2023/07/24 13:04:55;;;;;;;5.18;3.65;;;;;;;;;;5084176;28;20244;-62
2023/07/24 13:07:23;;;;;;;4.45;3.65;;;;;;;;;;5080993;28;20587;-63
2023/07/24 13:09:51;;;;;;;4.57;3.40;;;;;;;;;;5079381;28;20202;-62
2023/07/24 13:12:18;;;;;;;3.83;3.42;;;;;;;;;;5089691;28;20220;-62
2023/07/24 13:14:46;;;;;;;3.72;3.42;;;;;;;;;;5065029;28;20206;-62
2023/07/24 13:17:13;;;;;;;3.83;3.53;;;;;;;;;;5088234;28;20203;-62
2023/07/24 13:19:41;;;;;;;4.60;3.40;;;;;;;;;;5087762;28;20225;-63
2023/07/24 13:22:08;;;;;;;4.55;3.72;;;;;;;;;;5079385;28;20588;-63
2023/07/24 13:24:36;;;;;;;5.00;3.55;;;;;;;;;;5079398;28;20269;-62
2023/07/24 13:27:04;;;;;;;5.43;3.35;;;;;;;;;;5083543;28;20193;-63
2023/07/24 13:29:32;;;;;;;6.22;3.53;;;;;;;;;;5088324;28;20201;-62
2023/07/24 13:31:59;;;;;;;4.50;3.30;;;;;;;;;;5088887;28;20205;-63
2023/07/24 13:34:27;;;;;;;4.30;3.40;;;;;;;;;;5093026;28;20201;-63
2023/07/24 13:36:55;;;;;;;5.47;3.80;;;;;;;;;;5078963;28;20205;-64
2023/07/24 13:39:22;;;;;;;16.50;5.50;;;;;;;;;;5080082;28;20324;-62
2023/07/24 13:41:50;;;;;;;10.65;4.40;;;;;;;;;;5081714;28;20197;-62
2023/07/24 13:44:18;;;;;;;5.30;3.85;;;;;;;;;;5075269;28;20229;-60
2023/07/24 15:07:24;;;;;;;5.20;4.75;;;;;;;;;;5091896;27;20984;-80
2023/07/24 15:09:51;;;;;;;4.70;4.18;;;;;;;;;;5104624;28;20211;-81
2023/07/24 15:12:18;;;;;;;5.10;4.22;;;;;;;;;;5100014;28;20937;-81
2023/07/24 15:14:46;;;;;;;5.00;4.15;;;;;;;;;;5101079;28;20200;-80
2023/07/24 15:17:14;;;;;;;5.55;3.90;;;;;;;;;;5097686;28;20327;-82
2023/07/24 15:19:41;;;;;;;6.43;4.38;;;;;;;;;;5104005;28;20196;-81
2023/07/24 15:22:09;;;;;;;4.90;3.90;;;;;;;;;;5101740;28;20265;-80
2023/07/24 15:24:36;;;;;;;5.82;4.07;;;;;;;;;;5088042;28;20208;-79
2023/07/24 15:27:08;;;;;;;4.10;3.78;;;;;;;;;;5099436;28;20281;-81
2023/07/24 15:29:36;;;;;;;4.18;3.78;;;;;;;;;;5104123;28;20196;-80
2023/07/24 15:32:03;;;;;;;5.63;3.35;;;;;;;;;;5096276;28;20257;-80
2023/07/24 15:34:31;;;;;;;4.05;3.42;;;;;;;;;;5096778;28;20254;-81
2023/07/24 15:36:58;;;;;;;3.60;3.30;;;;;;;;;;5104183;28;20258;-79
2023/07/24 15:39:25;;;;;;;3.72;3.38;;;;;;;;;;5101910;28;20253;-80
2023/07/24 15:41:52;;;;;;;3.83;3.50;;;;;;;;;;5102808;28;20192;-81
2023/07/24 15:44:19;;;;;;;4.20;3.50;;;;;;;;;;5093770;28;20196;-82
2023/07/24 15:46:47;;;;;;;4.80;3.58;;;;;;;;;;5099991;28;20226;-81
2023/07/24 15:49:14;;;;;;;3.92;3.33;;;;;;;;;;5103422;28;20201;-78
2023/07/24 15:51:41;;;;;;;3.70;3.40;;;;;;;;;;5101993;28;20265;-80
2023/07/24 15:54:10;;;;;;;6.45;3.42;;;;;;;;;;5096754;28;20216;-80
2023/07/24 15:56:39;;;;;;;3.63;3.33;;;;;;;;;;5097690;28;20247;-80
2023/07/24 15:59:06;;;;;;;3.60;3.30;;;;;;;;;;5089553;28;20205;-80
2023/07/24 16:01:33;;;;;;;5.05;3.50;;;;;;;;;;5086911;28;21396;-79
2023/07/24 16:04:02;;;;;;;5.15;3.97;;;;;;;;;;5091984;28;20919;-78